首页
METAR-TAF:

METAR-TAF

机场 :

邦里基國際機場

塔拉瓦环礁, 基里巴斯

纬度: 01-21N, 经度: 172-55E, 海拔: 2米

当前天气观测

该预报发布于57分钟前的12:00 UTC
风速2节,风向多变
温度 27°C
湿度 84%
气压 1009 hPa
能见度10公里或以上
少量云层高于2000英尺
多云层高于10000英尺

METAR: NGTA 121200Z VRB02KT 9999 FEW020 BKN100 27/24 Q1009

时间: 02:57 (12:57 UTC)

预报

该预报发布于1小时和45分钟前的11:12 UTC
预报有效从12日的 12点(UTC)到 13日的 12点(UTC)
风速7节,风向北转东北
能见度10公里或以上
少量云层高于1900英尺
阴天层高于10000英尺
几率 40% :
短暂存在
从 12日的 12点(UTC)到 13日的 12点(UTC)
能見度: 5000
多云层高于1500英尺
少量云层高于1800英尺, 积雨云.
雷暴, 雨

TAF: NGTA 121112Z 1212/1312 03007KT 9999 FEW019 OVC100 PROB40 TEMPO 1212/1312 5000 TSRA BKN015 FEW018CB

超过4000个机场的气象观测和天气预报(METAR&TAF报告)。

可查询的气象台以黄色和红色小点在地图上表示。

将鼠标移到小点上方,可查看气象台名称。

然后点击查看天气观测和预报。

如需切换地图:点击带黑十字的绿色按钮放大地图;点击带横线的绿色按钮缩小地图;或者点击绿色箭头查看邻近地区的地图。


METAR-TAF: